Rick Husband Amarillo International Airport Amarillo US
ICAO: KAMA
IATA: AMA
Category: Large
Scheduled Services: Yes

Elevation: 3607 ft
TransAlt. 18000 ft.

Airport Communications:
APP/DEP:121.15
ATIS:118.85
CLNC DEL:121.65
CTAF:118.3
GND:121.9
FORT WORTH RDO:122.65
TWR:118.3
UNICOM:122.95

KAMA Zoom In..

Runways:

(A) RW 04 length 13502 ft width 200 ft
ILS 110.30 / hdg 38

(B) RW 13 length 7901 ft width 150 ft
---- / hdg 129

(C) RW 22 length 13502 ft width 200 ft
---- / hdg 218

(D) RW 31 length 7901 ft width 150 ft
---- / hdg 309

Location; KAMA
Day. 25 / Time. 11.53 Zulu
* Altimeter: 30.32
* Temperature: 02° c. 35.6°f.
* Wind from: 350° Speed 18 kn with Gusts up to 26 kn.
Dewpoint: 02° c.
Visibility: 10 Statute Miles.
Clouds: Broken 800 ft.
Clouds: Overcast 5500 ft.

KAMA 251153Z 35018G26KT 10SM BKN008 OVC055 02/02 A3032 RMK AO2 PK WND 35028/1128 SLP261 60011 70011 T00220017 10067 20022 55002


Wind From 350°
Speed 18 kn.

  YouTube Music Video
 
jpsmedia.com for Web Design  worldairports.se 2018   terms of use